London, Minnesota
Current Conditions -  °F | °C
As of 6:51 PM on Friday 19 Dec 2014 (Local Time) from KAEL Reporting Station
Haze Haze  
Wind Chill: 21°   Ceiling: 900
Heat Index: 28°   Visibility: 4mi
Dew Point: 28°   Wind: 7mph
Humidity: 100%   Direction: 160°SSE
Pressure: 30.17"   Gusts: NA
Location:  43.5439°N, 93.1707°W
Report Text: KAEL 200051Z AUTO 16006KT 4SM BR OVC009 M02/M02 A3017 RMK AO2
Loading
Personal Weather Stations






























Interactive Weather Map New forecast layout! Learn more

10-Day Weather Forecast

Advertisements
Track Severe Weather on mobile